Terminal Aerodrome Forecast
Issued by NWS Wakefield, VA

Home | Current Version | Previous Version | Text Only | Print | Product List | Glossary On
Versions: 1 2 3 4 5 6 7 8 9 10 11 12 13 14 15
551
FTUS41 KAKQ 260531
TAFRIC
TAF
KRIC 260531Z 2606/2706 18004KT P6SM BKN200
     FM261100 VRB03KT P6SM BKN020
     FM261400 13004KT P6SM BKN035
     FM262000 16008KT P6SM BKN045
     FM270000 17007KT P6SM BKN150=

USA.gov is the U.S. government's official web portal to all federal, state and local government web resources and services.